Time;durP1;ratioP1;P1;durP2;ratioP2;P2;SDS_P1;SDS_P2;PMS_P1;PMS_P2;Temp;Humidity;BMP_temperature;BMP_pressure;BME280_temperature;BME280_humidity;BME280_pressure;Samples;Min_cycle;Max_cycle;Signal;HPM_P1;HPM_P2
2022/04/22 00:01:12;;;;;;;5.10;3.73;;;17.90;68.30;;;;;;4936459;29;20803;-72
2022/04/22 00:03:38;;;;;;;5.07;4.57;;;17.90;68.30;;;;;;4936297;29;20455;-72
2022/04/22 00:06:07;;;;;;;3.93;3.60;;;17.90;68.40;;;;;;4921195;29;20936;-72
2022/04/22 00:08:37;;;;;;;4.30;3.90;;;17.90;68.50;;;;;;4920177;29;20469;-72
2022/04/22 00:13:55;;;;;;;4.57;3.80;;;17.90;68.60;;;;;;4936451;29;20463;-72
2022/04/22 00:16:25;;;;;;;4.40;4.00;;;17.80;68.50;;;;;;4937458;29;20832;-71
2022/04/22 00:18:51;;;;;;;4.60;4.10;;;17.80;68.60;;;;;;4936595;29;20963;-71
2022/04/22 00:21:17;;;;;;;6.30;4.40;;;17.80;68.70;;;;;;4937020;29;20465;-71
2022/04/22 00:23:44;;;;;;;4.53;4.13;;;17.80;68.80;;;;;;4935959;29;20501;-71
2022/04/22 00:26:12;;;;;;;4.47;4.07;;;17.80;68.90;;;;;;4920458;29;20448;-71
2022/04/22 00:28:38;;;;;;;4.63;3.90;;;17.80;68.90;;;;;;4936115;29;20452;-71
2022/04/22 00:31:04;;;;;;;4.67;4.00;;;17.80;69.00;;;;;;4936448;29;20439;-71
2022/04/22 00:33:30;;;;;;;4.43;4.03;;;17.80;69.10;;;;;;4920247;29;20467;-71
2022/04/22 00:35:59;;;;;;;4.30;3.90;;;17.70;69.00;;;;;;4920727;29;20510;-71
2022/04/22 00:38:25;;;;;;;4.10;3.70;;;17.70;69.00;;;;;;4935466;29;20454;-71
2022/04/22 00:40:55;;;;;;;4.97;3.80;;;17.70;69.10;;;;;;4916600;29;20453;-71
2022/04/22 00:43:22;;;;;;;4.63;4.23;;;17.70;69.20;;;;;;4931718;29;20483;-71
2022/04/22 00:45:49;;;;;;;4.83;4.20;;;17.70;69.20;;;;;;4935712;29;20413;-71
2022/04/22 00:48:19;;;;;;;4.13;3.73;;;17.70;69.30;;;;;;4935767;29;20453;-71
2022/04/22 00:50:48;;;;;;;3.87;3.57;;;17.60;69.20;;;;;;4935292;29;20452;-71
2022/04/22 00:53:17;;;;;;;4.40;4.00;;;17.60;69.30;;;;;;4935911;29;20463;-71
2022/04/22 00:55:44;;;;;;;4.37;3.87;;;17.70;70.30;;;;;;4935804;29;20432;-71
2022/04/22 00:58:11;;;;;;;4.27;3.90;;;17.60;69.40;;;;;;4919820;29;20432;-71
2022/04/22 01:00:39;;;;;;;4.77;3.90;;;17.60;69.40;;;;;;4936581;29;20435;-71
2022/04/22 01:03:08;;;;;;;4.27;3.87;;;17.60;69.50;;;;;;4935491;29;20453;-71
2022/04/22 01:11:15;;;;;;;4.20;3.63;;;17.60;69.70;;;;;;4934076;29;20472;-71
2022/04/22 01:13:41;;;;;;;4.87;3.97;;;17.50;69.70;;;;;;4919239;29;20527;-71
2022/04/22 01:16:10;;;;;;;4.77;4.27;;;17.50;69.70;;;;;;4935187;29;20400;-71
2022/04/22 01:18:37;;;;;;;4.60;4.20;;;17.50;69.80;;;;;;4919195;29;20443;-71
2022/04/22 01:21:06;;;;;;;4.93;4.43;;;17.50;69.90;;;;;;4934948;29;20423;-71
2022/04/22 01:23:34;;;;;;;4.77;4.27;;;17.50;70.00;;;;;;4934958;29;20515;-71
2022/04/22 01:26:01;;;;;;;4.50;3.80;;;17.50;70.00;;;;;;4936140;29;20843;-71
2022/04/22 01:28:28;;;;;;;4.10;3.70;;;17.40;70.00;;;;;;4935118;29;20797;-71
2022/04/22 01:31:00;;;;;;;5.73;4.40;;;17.50;70.90;;;;;;4919245;29;20515;-71
2022/04/22 01:33:29;;;;;;;5.00;4.40;;;17.40;70.10;;;;;;4919323;29;21052;-71
2022/04/22 01:35:57;;;;;;;4.63;4.17;;;17.40;70.10;;;;;;4935989;29;20510;-71
2022/04/22 01:38:26;;;;;;;6.50;4.40;;;17.40;70.20;;;;;;4935915;29;20961;-71
2022/04/22 01:40:52;;;;;;;7.03;4.33;;;17.40;70.30;;;;;;4936085;29;20876;-71
2022/04/22 01:43:18;;;;;;;4.37;3.97;;;17.30;70.30;;;;;;4934821;29;20446;-71
2022/04/22 01:45:52;;;;;;;4.00;3.40;;;17.40;70.40;;;;;;4935770;29;20803;-71
2022/04/22 01:48:21;;;;;;;4.97;3.80;;;17.30;70.30;;;;;;4934817;29;21053;-71
2022/04/22 01:50:50;;;;;;;4.90;3.70;;;17.30;70.40;;;;;;4935453;29;20540;-71
2022/04/22 01:53:18;;;;;;;4.40;4.00;;;17.30;70.40;;;;;;4935261;29;20555;-71
2022/04/22 01:55:49;;;;;;;4.30;4.00;;;17.30;70.50;;;;;;4903468;29;20426;-71
2022/04/22 01:58:17;;;;;;;4.50;4.10;;;17.30;70.50;;;;;;4934478;29;20536;-71
2022/04/22 02:00:42;;;;;;;6.30;4.30;;;17.30;70.60;;;;;;4935430;29;20902;-71
2022/04/22 02:03:11;;;;;;;5.20;4.00;;;17.30;70.70;;;;;;4935744;29;20446;-71
2022/04/22 02:05:40;;;;;;;7.77;3.97;;;17.20;70.60;;;;;;4933926;29;20186;-71
2022/04/22 02:08:06;;;;;;;4.60;3.87;;;17.20;70.70;;;;;;4934478;29;20479;-71
2022/04/22 02:10:32;;;;;;;4.10;3.70;;;17.20;70.70;;;;;;4934221;29;20438;-71
2022/04/22 02:13:01;;;;;;;4.67;4.20;;;17.20;70.80;;;;;;4934817;29;20475;-71
2022/04/22 02:15:29;;;;;;;4.10;3.70;;;17.20;70.80;;;;;;4933892;29;20429;-71
2022/04/22 02:17:55;;;;;;;4.07;3.67;;;17.20;70.90;;;;;;4935176;29;20443;-71
2022/04/22 02:20:24;;;;;;;4.27;3.60;;;17.20;71.00;;;;;;4917983;29;20419;-71
2022/04/22 02:22:52;;;;;;;4.40;4.00;;;17.10;70.90;;;;;;4934356;29;20451;-71
2022/04/22 02:25:21;;;;;;;5.33;4.50;;;17.10;71.00;;;;;;4918210;29;20491;-71
2022/04/22 02:30:31;;;;;;;4.73;4.20;;;17.10;71.10;;;;;;4933737;29;20973;-71
2022/04/22 02:32:57;;;;;;;5.23;3.90;;;17.10;71.20;;;;;;4933048;29;20491;-71
2022/04/22 02:35:25;;;;;;;4.70;4.20;;;17.10;71.20;;;;;;4939291;29;20221;-71
2022/04/22 02:37:52;;;;;;;4.40;4.00;;;17.10;71.30;;;;;;4953059;28;20438;-71
2022/04/22 02:45:54;;;;;;;6.13;4.40;;;17.00;71.30;;;;;;4933695;29;20863;-71
2022/04/22 02:48:25;;;;;;;6.57;4.63;;;17.00;71.30;;;;;;4918434;29;20458;-71
2022/04/22 02:50:50;;;;;;;4.67;4.20;;;17.00;71.50;;;;;;4934694;29;20529;-71
2022/04/22 02:53:19;;;;;;;6.50;4.37;;;17.00;71.50;;;;;;4934658;29;20469;-71
2022/04/22 02:55:50;;;;;;;5.37;4.20;;;16.90;71.50;;;;;;4933550;29;20453;-71
2022/04/22 02:58:19;;;;;;;4.90;4.40;;;16.90;71.50;;;;;;4935005;29;20963;-71
2022/04/22 03:00:47;;;;;;;4.93;4.40;;;16.90;71.60;;;;;;4933532;29;20428;-71
2022/04/22 03:03:18;;;;;;;6.67;4.67;;;16.90;71.60;;;;;;4933604;29;20458;-71
2022/04/22 03:05:44;;;;;;;5.00;4.47;;;16.90;71.60;;;;;;4934569;29;20432;-71
2022/04/22 03:08:13;;;;;;;5.00;4.50;;;16.90;71.70;;;;;;4933303;29;20499;-71
2022/04/22 03:10:41;;;;;;;6.13;4.50;;;16.90;71.70;;;;;;4934485;29;20416;-71
2022/04/22 03:13:09;;;;;;;5.83;4.60;;;16.90;71.80;;;;;;4934766;29;21013;-71
2022/04/22 03:15:38;;;;;;;7.63;4.40;;;16.80;71.80;;;;;;4934455;29;20905;-71
2022/04/22 03:18:08;;;;;;;5.10;4.60;;;16.80;71.80;;;;;;4933614;29;20440;-71
2022/04/22 03:20:34;;;;;;;5.00;4.37;;;16.80;71.90;;;;;;4933147;29;20442;-71
2022/04/22 03:23:00;;;;;;;4.20;3.80;;;16.80;71.90;;;;;;4933446;29;20469;-71
2022/04/22 03:25:26;;;;;;;5.67;4.60;;;16.80;72.00;;;;;;4933620;29;20419;-71
2022/04/22 03:27:54;;;;;;;5.07;4.63;;;16.80;72.00;;;;;;4934369;29;20834;-71
2022/04/22 03:30:19;;;;;;;5.43;4.93;;;16.80;72.10;;;;;;4917286;29;20570;-71
2022/04/22 03:32:45;;;;;;;4.90;4.40;;;16.80;72.10;;;;;;4933290;29;20466;-71
2022/04/22 03:35:12;;;;;;;5.57;4.67;;;16.80;72.20;;;;;;4917243;29;20243;-71
2022/04/22 03:37:42;;;;;;;6.20;5.20;;;16.70;72.20;;;;;;4934620;29;20524;-71
2022/04/22 03:40:13;;;;;;;6.10;4.87;;;16.80;72.30;;;;;;4929710;29;20445;-71
2022/04/22 03:42:41;;;;;;;5.80;4.73;;;16.80;72.30;;;;;;4934497;29;20407;-71
2022/04/22 03:45:11;;;;;;;5.20;4.70;;;16.70;72.30;;;;;;4898876;29;20435;-71
2022/04/22 03:47:38;;;;;;;6.77;5.00;;;16.70;72.40;;;;;;4915344;29;20458;-71
2022/04/22 03:50:05;;;;;;;6.53;4.73;;;16.70;72.50;;;;;;4932102;29;20461;-71
2022/04/22 03:52:31;;;;;;;5.93;5.33;;;16.70;72.50;;;;;;4934529;29;20413;-71
2022/04/22 03:55:02;;;;;;;5.83;5.23;;;16.60;72.40;;;;;;4933127;29;20472;-71
2022/04/22 04:00:15;;;;;;;7.30;5.53;;;16.60;72.60;;;;;;4933701;29;20450;-71
2022/04/22 04:02:43;;;;;;;5.87;5.10;;;16.60;72.60;;;;;;4932672;29;20538;-71
2022/04/22 04:05:10;;;;;;;6.03;5.43;;;16.60;72.70;;;;;;4933340;29;20793;-71
2022/04/22 04:07:38;;;;;;;6.10;5.37;;;16.60;72.80;;;;;;4934096;29;20507;-71
2022/04/22 04:16:03;;;;;;;7.40;5.33;;;16.50;72.90;;;;;;4933107;29;20946;-71
2022/04/22 04:18:37;;;;;;;7.70;5.27;;;16.50;73.10;;;;;;4933266;29;20539;-71
2022/04/22 04:23:50;;;;;;;6.67;5.67;;;16.50;73.20;;;;;;4921908;29;20796;-69
2022/04/22 04:26:21;;;;;;;6.17;5.50;;;16.50;73.30;;;;;;4932682;29;20428;-70
2022/04/22 04:28:50;;;;;;;6.60;5.90;;;16.40;73.30;;;;;;4933683;29;20445;-70
2022/04/22 04:31:16;;;;;;;6.87;5.50;;;16.40;73.40;;;;;;4933663;29;20472;-70
2022/04/22 04:33:43;;;;;;;7.60;5.80;;;16.40;73.40;;;;;;4933642;29;20460;-70
2022/04/22 04:36:10;;;;;;;6.60;5.90;;;16.40;73.40;;;;;;4933129;29;20438;-70
2022/04/22 04:38:40;;;;;;;7.47;5.63;;;16.40;73.50;;;;;;4917378;29;20586;-71
2022/04/22 04:41:12;;;;;;;7.00;5.97;;;16.40;73.50;;;;;;4933996;29;20454;-71
2022/04/22 04:43:44;;;;;;;9.40;6.50;;;16.40;73.60;;;;;;4933267;29;20565;-71
2022/04/22 04:46:12;;;;;;;7.97;6.23;;;16.40;73.60;;;;;;4934283;29;20684;-71
2022/04/22 04:48:40;;;;;;;7.07;6.03;;;16.30;73.60;;;;;;4920481;29;20455;-71
2022/04/22 04:51:06;;;;;;;8.60;6.80;;;16.30;73.70;;;;;;4920622;29;20530;-71
2022/04/22 04:53:35;;;;;;;10.40;6.77;;;16.30;73.80;;;;;;4935990;29;20466;-71
2022/04/22 04:56:01;;;;;;;7.97;6.83;;;16.30;73.80;;;;;;4937153;29;20169;-71
2022/04/22 04:58:29;;;;;;;6.97;5.67;;;16.30;73.90;;;;;;4920172;29;20448;-71
2022/04/22 05:00:55;;;;;;;8.23;6.53;;;16.30;74.00;;;;;;4919987;29;20966;-71
2022/04/22 05:03:21;;;;;;;8.00;6.27;;;16.30;74.00;;;;;;4935972;29;20420;-71
2022/04/22 05:05:47;;;;;;;9.03;6.33;;;16.30;74.10;;;;;;4919746;29;20443;-71
2022/04/22 05:08:16;;;;;;;8.07;6.70;;;16.30;74.10;;;;;;4904721;29;20482;-72
2022/04/22 05:10:44;;;;;;;8.60;7.10;;;16.20;74.10;;;;;;4935994;29;20450;-70
2022/04/22 05:13:12;;;;;;;7.87;6.53;;;16.20;74.10;;;;;;4935075;29;20521;-70
2022/04/22 05:15:39;;;;;;;6.90;6.17;;;16.20;74.20;;;;;;4936620;29;20435;-70
2022/04/22 05:18:10;;;;;;;7.90;6.50;;;16.20;74.20;;;;;;4935725;29;20476;-70
2022/04/22 05:20:36;;;;;;;7.93;6.67;;;16.20;74.20;;;;;;4936026;29;20421;-70
2022/04/22 05:23:05;;;;;;;7.43;6.13;;;16.20;74.30;;;;;;4933895;29;20530;-68
2022/04/22 05:25:34;;;;;;;8.80;6.97;;;16.20;74.40;;;;;;4935169;29;20486;-68
2022/04/22 05:28:00;;;;;;;9.97;7.30;;;16.20;74.50;;;;;;4935346;29;20489;-68
2022/04/22 05:33:13;;;;;;;8.73;6.90;;;16.20;74.70;;;;;;4936622;29;20472;-75
2022/04/22 05:35:39;;;;;;;8.23;6.57;;;16.20;74.70;;;;;;4918575;29;20485;-67
2022/04/22 05:38:10;;;;;;;7.10;6.23;;;16.10;74.70;;;;;;4933122;29;20469;-75
2022/04/22 05:40:39;;;;;;;8.43;7.03;;;16.10;74.80;;;;;;4918034;29;20416;-69
2022/04/22 05:43:08;;;;;;;8.03;7.10;;;16.10;74.90;;;;;;4936850;29;21430;-70
2022/04/22 05:45:36;;;;;;;8.03;6.83;;;16.10;75.00;;;;;;4935640;29;20459;-68
2022/04/22 05:48:02;;;;;;;9.10;7.20;;;16.10;75.10;;;;;;4934985;29;20520;-68
2022/04/22 05:50:31;;;;;;;10.80;8.83;;;16.10;75.20;;;;;;4929609;29;20519;-68
2022/04/22 05:52:57;;;;;;;9.57;8.50;;;16.10;75.40;;;;;;4935726;29;20458;-70
2022/04/22 05:55:27;;;;;;;8.90;7.80;;;16.10;75.50;;;;;;4933991;29;20951;-69
2022/04/22 05:57:56;;;;;;;8.47;7.20;;;16.00;76.20;;;;;;4933823;29;20452;-69
2022/04/22 06:00:31;;;;;;;8.97;8.07;;;16.10;75.60;;;;;;4934798;29;20515;-69
2022/04/22 06:03:18;;;;;;;8.53;7.30;;;16.00;75.60;;;;;;4934414;29;20437;-70
2022/04/22 06:05:44;;;;;;;11.40;8.17;;;16.00;75.70;;;;;;4934697;29;20448;-70
2022/04/22 06:10:58;;;;;;;10.90;8.73;;;16.00;76.00;;;;;;4935413;29;20462;-69
2022/04/22 06:13:26;;;;;;;10.03;8.00;;;16.00;76.10;;;;;;4903227;29;20935;-69
2022/04/22 06:15:52;;;;;;;13.80;9.90;;;16.00;76.20;;;;;;4935647;29;20424;-69
2022/04/22 06:18:21;;;;;;;11.10;8.90;;;16.00;76.30;;;;;;4935693;29;20441;-69
2022/04/22 06:20:50;;;;;;;14.53;9.13;;;16.00;76.40;;;;;;4934370;29;20468;-69
2022/04/22 06:23:16;;;;;;;10.80;9.70;;;16.00;76.50;;;;;;4929879;29;20835;-69
2022/04/22 06:25:45;;;;;;;10.37;9.30;;;15.90;76.50;;;;;;4939355;29;20420;-69
2022/04/22 06:28:15;;;;;;;9.33;8.33;;;16.00;76.70;;;;;;4952315;28;20514;-70
2022/04/22 06:30:46;;;;;;;10.27;8.83;;;15.90;76.50;;;;;;4888884;29;20496;-69
2022/04/22 06:33:16;;;;;;;10.20;8.63;;;15.90;76.70;;;;;;4919421;29;20476;-70
2022/04/22 06:35:47;;;;;;;11.20;9.30;;;15.90;76.80;;;;;;4923837;29;20426;-70
2022/04/22 06:38:19;;;;;;;12.03;9.87;;;15.90;77.10;;;;;;4928357;29;20470;-70
2022/04/22 06:46:25;;;;;;;10.27;8.20;;;15.90;77.80;;;;;;4933946;29;20436;-70
2022/04/22 06:48:54;;;;;;;12.40;9.40;;;15.80;77.70;;;;;;4934155;29;20844;-70
2022/04/22 06:51:23;;;;;;;11.97;10.07;;;15.80;77.80;;;;;;4933942;29;20523;-70
2022/04/22 06:53:52;;;;;;;11.13;8.80;;;15.80;78.00;;;;;;4918364;29;20452;-70
2022/04/22 06:56:30;;;;;;;12.00;9.73;;;15.80;78.10;;;;;;4934860;29;20427;-70
2022/04/22 06:58:59;;;;;;;11.17;8.53;;;15.80;78.80;;;;;;4935501;29;20472;-70
2022/04/22 07:01:25;;;;;;;12.43;8.57;;;15.80;78.00;;;;;;4942640;29;20483;-70
2022/04/22 07:03:54;;;;;;;10.17;8.37;;;15.80;78.10;;;;;;4934079;29;20456;-70
2022/04/22 07:06:20;;;;;;;12.10;9.03;;;15.80;78.20;;;;;;4933792;29;20467;-69
2022/04/22 07:08:49;;;;;;;13.10;9.30;;;15.80;78.20;;;;;;4931742;29;20526;-69
2022/04/22 07:11:24;;;;;;;9.27;8.20;;;15.80;78.20;;;;;;4940877;29;20436;-70
2022/04/22 07:13:51;;;;;;;10.70;8.33;;;15.80;78.20;;;;;;4932835;29;20970;-71
2022/04/22 07:16:20;;;;;;;9.93;8.13;;;15.80;78.20;;;;;;4934681;29;20431;-70
2022/04/22 07:18:46;;;;;;;8.90;8.00;;;15.80;78.10;;;;;;4937875;29;21020;-70
2022/04/22 07:21:15;;;;;;;11.40;8.73;;;15.80;78.10;;;;;;4933160;29;20431;-72
2022/04/22 07:23:42;;;;;;;9.30;7.80;;;15.80;78.20;;;;;;4934772;29;20437;-71
2022/04/22 07:26:11;;;;;;;12.30;9.33;;;15.80;78.40;;;;;;4903988;29;20448;-70
2022/04/22 07:28:39;;;;;;;9.73;8.73;;;15.80;78.40;;;;;;4940512;28;20465;-73
2022/04/22 07:31:10;;;;;;;8.90;7.97;;;15.80;78.50;;;;;;4944733;29;20488;-70
2022/04/22 07:33:37;;;;;;;9.13;7.63;;;15.80;78.40;;;;;;4932545;29;21003;-73
2022/04/22 07:36:05;;;;;;;8.60;7.70;;;15.80;78.30;;;;;;4933318;29;20479;-74
2022/04/22 07:38:34;;;;;;;9.77;8.20;;;15.80;78.30;;;;;;4946456;29;20491;-71
2022/04/22 07:41:00;;;;;;;10.50;9.00;;;15.80;78.30;;;;;;4934293;29;20438;-73
2022/04/22 07:48:58;;;;;;;10.63;8.27;;;15.80;79.50;;;;;;4942330;29;20454;-70
2022/04/22 07:51:25;;;;;;;9.50;8.50;;;15.80;78.90;;;;;;4945456;29;20830;-71
2022/04/22 07:53:58;;;;;;;10.00;8.07;;;15.80;79.00;;;;;;4940228;29;20469;-71
2022/04/22 07:56:24;;;;;;;9.53;7.23;;;15.80;78.80;;;;;;4943366;29;20416;-71
2022/04/22 07:58:50;;;;;;;8.37;7.43;;;15.80;78.70;;;;;;4915925;29;20998;-70
2022/04/22 08:01:18;;;;;;;8.13;7.33;;;15.80;78.60;;;;;;4944575;29;20970;-71
2022/04/22 08:03:46;;;;;;;8.00;7.20;;;15.80;78.70;;;;;;4918973;29;20486;-70
2022/04/22 08:06:13;;;;;;;7.00;6.30;;;15.80;78.50;;;;;;4934066;29;20491;-71
2022/04/22 08:08:39;;;;;;;9.40;7.00;;;15.80;78.20;;;;;;4936063;29;20470;-71
2022/04/22 08:11:09;;;;;;;8.27;7.47;;;15.90;78.10;;;;;;4922822;29;20446;-71
2022/04/22 08:13:38;;;;;;;9.80;7.00;;;15.90;78.00;;;;;;4937442;29;20499;-71
2022/04/22 08:16:04;;;;;;;9.80;7.63;;;15.90;78.20;;;;;;4937544;29;20438;-71
2022/04/22 08:18:30;;;;;;;7.00;6.40;;;15.90;78.30;;;;;;4930016;29;20470;-71
2022/04/22 08:21:03;;;;;;;7.43;6.63;;;15.90;78.40;;;;;;4934835;29;20520;-70
2022/04/22 08:23:29;;;;;;;7.37;6.67;;;15.90;78.60;;;;;;4912586;29;21016;-71
2022/04/22 08:25:55;;;;;;;7.70;6.27;;;15.90;78.50;;;;;;4919752;29;20426;-71
2022/04/22 08:28:24;;;;;;;6.90;5.93;;;15.90;78.40;;;;;;4927878;29;20454;-71
2022/04/22 08:30:54;;;;;;;9.87;7.77;;;15.90;78.40;;;;;;4943821;29;20469;-71
2022/04/22 08:33:21;;;;;;;7.40;6.60;;;15.90;78.40;;;;;;4941110;29;20471;-71
2022/04/22 08:35:54;;;;;;;10.43;7.67;;;15.90;78.70;;;;;;4943650;29;20445;-71
2022/04/22 08:38:23;;;;;;;7.93;6.73;;;15.90;78.60;;;;;;4944275;29;20478;-71
2022/04/22 08:40:52;;;;;;;7.83;7.03;;;15.90;78.60;;;;;;4946133;29;20424;-71
2022/04/22 08:43:20;;;;;;;7.63;6.70;;;15.90;78.70;;;;;;4943152;29;20539;-70
2022/04/22 08:45:48;;;;;;;10.80;6.90;;;15.90;78.70;;;;;;4929170;29;20450;-70
2022/04/22 08:51:01;;;;;;;7.60;6.80;;;15.90;78.70;;;;;;4939621;29;20268;-68
2022/04/22 08:53:29;;;;;;;6.80;5.93;;;15.90;78.70;;;;;;4930128;29;20469;-67
2022/04/22 08:55:57;;;;;;;7.53;6.47;;;15.90;78.60;;;;;;4942625;28;20455;-67
2022/04/22 08:58:25;;;;;;;8.50;7.00;;;15.90;78.60;;;;;;4946879;28;20979;-67
2022/04/22 09:00:54;;;;;;;7.00;6.30;;;15.90;78.60;;;;;;4947477;29;20457;-67
2022/04/22 09:03:22;;;;;;;7.80;6.47;;;15.90;78.50;;;;;;4944896;28;20544;-67
2022/04/22 09:05:48;;;;;;;8.63;6.10;;;15.90;78.40;;;;;;4922537;29;20878;-68
2022/04/22 09:08:18;;;;;;;7.73;6.20;;;15.90;78.30;;;;;;4926105;29;20830;-68
2022/04/22 09:10:53;;;;;;;6.90;6.13;;;15.90;78.40;;;;;;4934000;29;20503;-67
2022/04/22 09:13:26;;;;;;;7.30;6.30;;;15.90;78.30;;;;;;4934993;29;20476;-68
2022/04/22 09:15:54;;;;;;;6.50;5.90;;;15.90;78.30;;;;;;4923876;29;20445;-68
2022/04/22 09:18:26;;;;;;;6.67;5.70;;;15.90;78.30;;;;;;4935000;29;20823;-68
2022/04/22 09:21:02;;;;;;;7.90;6.13;;;15.90;78.20;;;;;;4938986;29;20494;-67
2022/04/22 09:23:35;;;;;;;6.87;6.10;;;16.00;78.30;;;;;;4940979;28;20515;-68
2022/04/22 09:26:07;;;;;;;7.93;6.33;;;16.00;78.30;;;;;;4936370;29;20444;-68
2022/04/22 09:28:36;;;;;;;6.93;5.87;;;16.00;78.20;;;;;;4933776;29;20525;-67
2022/04/22 09:31:06;;;;;;;7.10;6.40;;;16.00;78.30;;;;;;4937233;29;20450;-67
2022/04/22 09:33:44;;;;;;;6.20;5.50;;;16.00;78.20;;;;;;4920809;29;20480;-67
2022/04/22 09:45:09;;;;;;;7.90;6.27;;;16.00;78.00;;;;;;4935447;29;20442;-67
2022/04/22 09:47:36;;;;;;;5.80;5.30;;;16.00;78.10;;;;;;4934461;28;20833;-66
2022/04/22 09:50:11;;;;;;;8.20;6.50;;;16.00;78.30;;;;;;4933944;29;20446;-65
2022/04/22 09:52:43;;;;;;;6.20;5.60;;;16.00;78.30;;;;;;4935675;29;20436;-64
2022/04/22 09:55:16;;;;;;;6.70;6.10;;;16.00;78.40;;;;;;4944029;29;20546;-64
2022/04/22 09:57:53;;;;;;;7.83;6.47;;;16.00;78.10;;;;;;4939147;29;20444;-65
2022/04/22 10:00:26;;;;;;;7.10;6.40;;;16.00;78.30;;;;;;4933855;29;20444;-65
2022/04/22 10:02:55;;;;;;;6.60;5.90;;;16.00;78.30;;;;;;4934588;29;20439;-65
2022/04/22 10:05:31;;;;;;;6.43;5.40;;;16.00;78.30;;;;;;4932847;29;20546;-67
2022/04/22 10:08:06;;;;;;;7.77;6.97;;;16.00;78.20;;;;;;4932496;29;20847;-66
2022/04/22 10:10:39;;;;;;;6.40;5.80;;;16.00;78.30;;;;;;5004201;23;20573;-71
2022/04/22 10:13:12;;;;;;;8.03;6.77;;;16.10;78.40;;;;;;4949213;28;20451;-72
2022/04/22 10:15:41;;;;;;;7.70;6.27;;;16.00;78.30;;;;;;4956455;28;20452;-72
2022/04/22 10:18:15;;;;;;;6.90;6.30;;;16.00;78.40;;;;;;4950285;28;20462;-73
2022/04/22 10:20:43;;;;;;;6.90;6.30;;;16.00;78.50;;;;;;4934851;29;20424;-74
2022/04/22 10:23:09;;;;;;;7.13;6.40;;;16.10;78.60;;;;;;4942518;29;20428;-74
2022/04/22 10:25:39;;;;;;;7.33;6.63;;;16.10;78.50;;;;;;4933721;29;20442;-73
2022/04/22 10:28:08;;;;;;;8.40;6.93;;;16.10;78.40;;;;;;4936223;29;20466;-71
2022/04/22 10:30:40;;;;;;;6.80;6.10;;;16.10;78.40;;;;;;4937069;29;20460;-73
2022/04/22 10:33:08;;;;;;;7.20;6.43;;;16.10;78.20;;;;;;4936984;29;20490;-72
2022/04/22 10:35:41;;;;;;;8.20;7.40;;;16.10;78.30;;;;;;4937747;29;20472;-73
2022/04/22 10:38:28;;;;;;;8.00;7.00;;;16.20;78.30;;;;;;4919809;29;20460;-72
2022/04/22 10:40:54;;;;;;;8.60;7.40;;;16.20;78.70;;;;;;4917753;29;20516;-72
2022/04/22 10:43:27;;;;;;;8.40;7.60;;;16.20;78.70;;;;;;4931601;28;20432;-71
2022/04/22 10:48:41;;;;;;;8.13;7.37;;;16.20;78.50;;;;;;4946010;29;20956;-73
2022/04/22 10:51:10;;;;;;;10.63;8.00;;;16.20;78.40;;;;;;4935816;28;20973;-73
2022/04/22 10:53:49;;;;;;;8.70;7.80;;;16.30;78.50;;;;;;4931737;29;20472;-73
2022/04/22 10:56:28;;;;;;;7.90;6.80;;;16.30;78.40;;;;;;4941359;29;20516;-72
2022/04/22 10:59:19;;;;;;;7.93;7.13;;;16.30;78.40;;;;;;4911068;29;20497;-72
2022/04/22 11:01:45;;;;;;;6.90;6.30;;;16.30;78.40;;;;;;4939219;29;20444;-72
2022/04/22 11:04:26;;;;;;;8.37;7.57;;;16.30;78.50;;;;;;4937603;29;20944;-72
2022/04/22 11:06:53;;;;;;;7.80;7.10;;;16.30;78.40;;;;;;4926862;28;20997;-72
2022/04/22 11:09:28;;;;;;;7.47;6.77;;;16.40;78.50;;;;;;4932401;28;20446;-72
2022/04/22 11:11:57;;;;;;;8.93;7.43;;;16.40;78.40;;;;;;4932488;29;20520;-72
2022/04/22 11:14:25;;;;;;;7.30;6.17;;;16.40;78.20;;;;;;4934654;29;21026;-73
2022/04/22 11:17:34;;;;;;;8.20;6.80;;;16.40;78.10;;;;;;4931506;29;20506;-73
2022/04/22 11:20:05;;;;;;;7.43;6.73;;;16.50;78.30;;;;;;4915888;29;20482;-72
2022/04/22 11:22:52;;;;;;;7.33;6.63;;;16.50;78.10;;;;;;4912291;29;20441;-73
2022/04/22 11:25:24;;;;;;;9.90;6.60;;;16.50;78.00;;;;;;4947296;28;20448;-71
2022/04/22 11:27:52;;;;;;;7.93;6.63;;;16.60;78.00;;;;;;4948079;29;20458;-72
2022/04/22 11:30:22;;;;;;;7.33;6.63;;;16.60;78.00;;;;;;4936567;28;20451;-72
2022/04/22 11:32:52;;;;;;;7.30;6.60;;;16.60;77.80;;;;;;4942739;29;21054;-72
2022/04/22 11:35:22;;;;;;;6.30;5.70;;;16.60;77.50;;;;;;4916014;29;20955;-73
2022/04/22 11:38:03;;;;;;;8.30;6.37;;;16.70;77.60;;;;;;4909262;29;20458;-72
2022/04/22 11:40:37;;;;;;;7.10;6.40;;;16.70;77.60;;;;;;4936145;29;20497;-72
2022/04/22 11:43:11;;;;;;;6.60;5.93;;;16.70;77.50;;;;;;4923669;29;20482;-72
2022/04/22 11:45:42;;;;;;;7.70;6.40;;;16.70;77.30;;;;;;4930982;29;20443;-70
2022/04/22 11:48:18;;;;;;;9.73;5.83;;;16.80;78.00;;;;;;4935588;29;21005;-71
2022/04/22 11:50:48;;;;;;;5.87;5.37;;;16.80;77.10;;;;;;4930794;29;20421;-71
2022/04/22 11:53:34;;;;;;;8.00;6.07;;;16.80;77.00;;;;;;4932909;29;20519;-75
2022/04/22 11:56:02;;;;;;;6.60;6.00;;;16.80;76.90;;;;;;4927172;29;20457;-73
2022/04/22 11:58:32;;;;;;;6.00;5.50;;;16.80;76.70;;;;;;4920925;29;20453;-74
2022/04/22 12:06:42;;;;;;;7.53;5.97;;;16.90;76.70;;;;;;4942690;29;20504;-76
2022/04/22 12:09:11;;;;;;;6.47;5.30;;;16.90;76.50;;;;;;4912501;29;20533;-71
2022/04/22 12:11:42;;;;;;;7.00;5.70;;;16.90;76.40;;;;;;4942620;29;20815;-71
2022/04/22 12:14:10;;;;;;;6.63;6.03;;;16.90;76.30;;;;;;4945294;29;20472;-73
2022/04/22 12:16:38;;;;;;;6.30;5.70;;;17.00;76.50;;;;;;4942805;29;20457;-71
2022/04/22 12:19:09;;;;;;;6.40;5.80;;;17.00;76.50;;;;;;4938309;29;20819;-71
2022/04/22 12:21:35;;;;;;;6.10;5.50;;;17.00;76.40;;;;;;4933807;29;20424;-70
2022/04/22 12:24:04;;;;;;;6.17;5.30;;;17.10;76.40;;;;;;4957154;28;20413;-71
2022/04/22 12:26:36;;;;;;;7.90;6.07;;;17.10;76.40;;;;;;4946777;28;20520;-71
2022/04/22 12:29:09;;;;;;;5.63;5.13;;;17.10;76.40;;;;;;4944293;29;20453;-71
2022/04/22 12:31:39;;;;;;;6.47;5.87;;;17.10;76.40;;;;;;4929974;29;20436;-72
2022/04/22 12:34:08;;;;;;;5.70;5.10;;;17.20;76.40;;;;;;4944896;29;20978;-70
2022/04/22 12:36:53;;;;;;;7.30;6.10;;;17.20;76.30;;;;;;4940534;29;20865;-71
2022/04/22 12:39:39;;;;;;;7.37;6.47;;;17.20;76.30;;;;;;4952548;29;20426;-70
2022/04/22 12:42:29;;;;;;;7.10;6.20;;;17.20;76.50;;;;;;4947584;29;20421;-70
2022/04/22 12:54:07;;;;;;;6.90;6.17;;;17.30;76.20;;;;;;4935691;29;20458;-71
2022/04/22 12:56:34;;;;;;;6.93;6.33;;;17.30;76.20;;;;;;4904392;29;20970;-71
2022/04/22 12:59:03;;;;;;;6.50;5.80;;;17.40;76.40;;;;;;4936091;29;20466;-71
2022/04/22 13:01:39;;;;;;;6.87;5.30;;;17.40;76.40;;;;;;4935866;29;20421;-70
2022/04/22 13:04:19;;;;;;;6.70;5.73;;;17.40;76.40;;;;;;4920159;29;20812;-71
2022/04/22 13:06:47;;;;;;;7.13;6.40;;;17.40;76.30;;;;;;4936423;29;20938;-70
2022/04/22 13:09:16;;;;;;;6.83;6.07;;;17.50;76.30;;;;;;4935486;29;20474;-71
2022/04/22 13:11:46;;;;;;;6.57;5.90;;;17.50;76.10;;;;;;4936755;29;20824;-70
2022/04/22 13:14:12;;;;;;;6.63;5.90;;;17.50;76.00;;;;;;4936728;29;21035;-72
2022/04/22 13:16:43;;;;;;;8.83;6.20;;;17.50;75.80;;;;;;4936944;29;20420;-71
2022/04/22 13:19:11;;;;;;;7.30;6.03;;;17.50;75.80;;;;;;4936790;29;20412;-71
2022/04/22 13:21:42;;;;;;;6.70;6.00;;;17.60;76.80;;;;;;4931915;29;20424;-71
2022/04/22 13:24:10;;;;;;;7.17;6.47;;;17.60;75.90;;;;;;4930840;29;20828;-70
2022/04/22 13:26:39;;;;;;;8.00;6.77;;;17.70;75.90;;;;;;4919962;29;20462;-71
2022/04/22 13:29:06;;;;;;;7.17;6.47;;;17.70;75.90;;;;;;4937245;29;20901;-71
2022/04/22 13:31:33;;;;;;;7.17;6.37;;;17.70;75.80;;;;;;4909142;29;20826;-71
2022/04/22 13:34:01;;;;;;;6.67;6.03;;;17.70;75.80;;;;;;4930528;29;20459;-71
2022/04/22 13:36:31;;;;;;;7.07;6.33;;;17.70;75.80;;;;;;4935444;29;20475;-72
2022/04/22 13:38:57;;;;;;;8.63;5.87;;;17.80;75.80;;;;;;4936590;29;20533;-72
2022/04/22 13:41:23;;;;;;;7.63;6.37;;;17.80;75.70;;;;;;4935570;29;20850;-72
2022/04/22 13:43:52;;;;;;;6.20;5.63;;;17.80;75.60;;;;;;4923665;29;20454;-71
2022/04/22 13:54:31;;;;;;;6.17;5.57;;;18.00;75.30;;;;;;4919458;29;20837;-71
2022/04/22 13:56:57;;;;;;;6.03;5.10;;;18.00;75.30;;;;;;4935147;29;20432;-71
2022/04/22 13:59:23;;;;;;;6.37;5.77;;;18.00;75.30;;;;;;4935160;29;20243;-71
2022/04/22 14:01:52;;;;;;;6.50;5.90;;;18.00;75.20;;;;;;4934984;29;20442;-71
2022/04/22 14:04:18;;;;;;;5.93;5.40;;;18.10;75.20;;;;;;4919215;29;20427;-71
2022/04/22 14:06:45;;;;;;;7.10;5.83;;;18.10;75.10;;;;;;4934589;29;20487;-71
2022/04/22 14:09:11;;;;;;;7.27;5.63;;;18.10;75.80;;;;;;4934998;29;20511;-71
2022/04/22 14:11:42;;;;;;;8.23;5.83;;;18.10;74.90;;;;;;4935745;29;20559;-70
2022/04/22 14:14:12;;;;;;;6.37;5.47;;;18.20;75.70;;;;;;4921454;29;21230;-71
2022/04/22 14:16:38;;;;;;;6.23;5.07;;;18.20;74.80;;;;;;4929468;29;20438;-71
2022/04/22 14:19:09;;;;;;;5.57;5.07;;;18.20;74.80;;;;;;4934125;29;20439;-70